Jacksonville, IL

2:58 AM CDT on April 24, 2017 (GMT -0500)
Prairie Land | | Change Station
Active Advisory: Flood Warning

Elev 600 ft 39.72 °N, 90.25 °W | Updated 37 seconds ago

Clear
Clear
42.1 °F
Feels Like 42 °F
N
0.0
Wind Variable Wind from SSE

Today
High -- | Low -- °F
--% Chance of Precip.
Yesterday
High -- | Low -- °F
Precip. -- in
Pressure 29.98 in
Visibility 10.0 miles
Clouds Clear
Windchill 42 °F
Dew Point 32 °F
Humidity 69%
Rainfall 0.00 in
Snow Depth Not available.
6:10 AM 7:48 PM
Waning Crescent, 7% visible
METAR KIJX 240735Z AUTO 07005KT 10SM CLR 06/00 A2998 RMK AO2 T00611004
Pressure 29.98 in
Visibility 10.0 miles
Clouds Clear
Windchill 42 °F
Dew Point 32 °F
Humidity 69%
Rainfall 0.00 in
Snow Depth Not available.
6:10 AM 7:48 PM
Waning Crescent, 7% visible
METAR KIJX 240735Z AUTO 07005KT 10SM CLR 06/00 A2998 RMK AO2 T00611004

Get Your Daily Forecast Email!

Thanks for signing up!

Be on the lookout for a verification email in your inbox.

You'll start receiving severe weather alerts in your inbox..

×

10-Day Weather Forecast

Almanac

Astronomy

Apr. 24, 2017 Rise Set
Actual Time
Civil Twilight
Nautical Twilight
Astronomical Twilight
Moon
Length of Visible Light
Length of Day
Tomorrow will be .
, % of the Moon is Illuminated

Today's Extremes

State Highs State Lows

Community

WunderPhotos

WunderBlog® & News

Nearby

Air Quality

  Air Quality AQ Index Pollutant
Not available.

Snow Depth

Station Depth Elevation

Earthquake Activity

City Distance Mag. Time & Date
Minimum magnitude displayed is 2.5.

Coastal Water Temperatures

Place Temperature

Stations

Nearby Weather Stations

Station Location Temp. Windchill Dew Point Humidity Wind Precip. Elev Updated Type
                   

Watches & Warnings

Flood Warning
Issued: 8:17 PM CDT Apr. 23, 2017 – National Weather Service

The Flood Warning continues for
the Illinois River at Beardstown.
* Until further notice.
* At 745 PM Sunday the stage was 17.4 feet.
* Flood stage is 14.0 feet.
* Minor flooding is occurring and minor flooding is forecast.
* Forecast... the river will continue to fall to a stage of 17.0 feet
by Tuesday morning.
* Impact... at 18.0 feet... seepage problems begin in the Lost Creek
drainage and levee district.



                  Fld observed forecast 6am
location stg stg day time Mon Tue Wed

Illinois River
Beardstown 14 17.4 sun 8 PM 17.3 17.0 16.7



Lat... Lon 4018 9023 4012 9017 4008 9037 3999 9046
      3999 9058 4015 9043